createdAt,value
2022-12-29T00:02:08.938Z,98.10
2022-12-29T00:04:43.088Z,97.57
2022-12-29T00:07:17.985Z,109.03
2022-12-29T00:09:51.879Z,103.97
2022-12-29T00:12:27.678Z,104.70
2022-12-29T00:15:16.950Z,107.00
2022-12-29T00:17:51.607Z,104.43
2022-12-29T00:20:41.394Z,117.63
2022-12-29T00:23:31.570Z,106.63
2022-12-29T00:26:25.333Z,108.23
2022-12-29T00:29:17.075Z,108.17
2022-12-29T00:32:08.095Z,111.80
2022-12-29T00:34:57.942Z,103.37
2022-12-29T00:37:44.860Z,99.40
2022-12-29T00:40:36.273Z,98.47
2022-12-29T00:43:26.295Z,95.57
2022-12-29T00:46:02.590Z,100.80
2022-12-29T00:48:53.640Z,103.43
2022-12-29T00:51:27.601Z,106.80
2022-12-29T00:54:01.395Z,113.10
2022-12-29T00:56:35.839Z,99.47
2022-12-29T00:59:11.057Z,96.73
2022-12-29T01:01:47.194Z,99.43
2022-12-29T01:04:21.107Z,103.73
2022-12-29T01:06:55.857Z,101.43
2022-12-29T01:09:45.772Z,94.80
2022-12-29T01:12:39.861Z,94.13
2022-12-29T01:15:17.291Z,99.67
2022-12-29T01:17:54.415Z,95.13
2022-12-29T01:20:30.024Z,87.97
2022-12-29T01:23:04.071Z,91.07
2022-12-29T01:25:38.141Z,90.77
2022-12-29T01:28:12.988Z,84.03
2022-12-29T01:30:46.988Z,91.90
2022-12-29T01:33:22.799Z,95.53
2022-12-29T01:35:56.587Z,86.37
2022-12-29T01:38:33.097Z,86.40
2022-12-29T01:41:08.497Z,89.47
2022-12-29T01:43:51.268Z,96.40
2022-12-29T01:46:31.561Z,91.00
2022-12-29T01:49:19.472Z,85.63
2022-12-29T01:51:56.193Z,93.67
2022-12-29T01:54:34.742Z,90.60
2022-12-29T01:57:15.349Z,81.20
2022-12-29T01:59:54.782Z,79.27
2022-12-29T02:02:33.200Z,88.97
2022-12-29T02:05:15.877Z,80.93
2022-12-29T02:07:55.495Z,74.30
2022-12-29T02:10:31.251Z,84.60
2022-12-29T02:13:05.451Z,82.03
2022-12-29T02:15:50.982Z,79.00
2022-12-29T02:18:33.610Z,84.20
2022-12-29T02:21:48.086Z,90.53
2022-12-29T02:24:56.411Z,89.33
2022-12-29T02:27:58.070Z,95.13
2022-12-29T02:30:55.341Z,80.37
2022-12-29T02:33:42.583Z,82.53
2022-12-29T02:36:27.700Z,80.20
2022-12-29T02:39:10.357Z,79.60
2022-12-29T02:41:51.997Z,79.43
2022-12-29T02:44:36.762Z,80.23
2022-12-29T02:47:21.300Z,75.50
2022-12-29T02:50:02.577Z,87.57
2022-12-29T02:52:41.187Z,72.23
2022-12-29T02:55:15.575Z,73.33
2022-12-29T02:57:52.541Z,76.73
2022-12-29T03:00:26.797Z,70.17
2022-12-29T03:03:21.029Z,64.70
2022-12-29T03:06:11.703Z,71.93
2022-12-29T03:08:54.267Z,60.13
2022-12-29T03:11:49.160Z,64.10
2022-12-29T03:14:48.176Z,70.27
2022-12-29T03:17:30.018Z,60.63
2022-12-29T03:20:12.199Z,63.13
2022-12-29T03:22:50.253Z,60.93
2022-12-29T03:25:33.472Z,70.43
2022-12-29T03:28:14.999Z,66.70
2022-12-29T03:30:53.159Z,81.00
2022-12-29T03:33:30.504Z,76.63
2022-12-29T03:36:14.214Z,76.80
2022-12-29T03:38:52.564Z,78.10
2022-12-29T03:41:29.416Z,73.60
2022-12-29T03:44:04.687Z,65.63
2022-12-29T03:46:39.265Z,76.10
2022-12-29T03:49:13.584Z,62.13
2022-12-29T03:51:51.881Z,72.53
2022-12-29T03:54:26.581Z,70.80
2022-12-29T03:57:00.759Z,68.43
2022-12-29T03:59:53.828Z,71.37
2022-12-29T04:02:30.268Z,70.57
2022-12-29T04:05:06.971Z,66.37
2022-12-29T04:07:46.178Z,69.70
2022-12-29T04:10:23.515Z,66.57
2022-12-29T04:13:03.974Z,69.47
2022-12-29T04:15:40.813Z,74.37
2022-12-29T04:18:18.892Z,79.13
2022-12-29T04:21:08.269Z,75.17
2022-12-29T04:23:50.134Z,72.83
2022-12-29T04:26:27.162Z,75.37
2022-12-29T04:29:23.089Z,81.93
2022-12-29T04:32:17.342Z,72.07
2022-12-29T04:34:58.889Z,70.33
2022-12-29T04:37:36.491Z,76.20
2022-12-29T04:40:16.556Z,75.10
2022-12-29T04:42:53.534Z,79.63
2022-12-29T04:45:31.335Z,82.63
2022-12-29T04:48:19.510Z,82.10
2022-12-29T04:51:09.784Z,82.73
2022-12-29T04:53:48.551Z,76.10
2022-12-29T04:56:27.889Z,83.47
2022-12-29T04:59:04.418Z,78.30
2022-12-29T05:01:41.203Z,84.27
2022-12-29T05:04:16.002Z,91.80
2022-12-29T05:06:50.988Z,88.90
2022-12-29T05:09:26.550Z,83.20
2022-12-29T05:12:02.583Z,89.10
2022-12-29T05:14:37.984Z,89.03
2022-12-29T05:17:12.088Z,83.43
2022-12-29T05:19:46.423Z,86.70
2022-12-29T05:22:20.901Z,82.23
2022-12-29T05:24:55.822Z,84.70
2022-12-29T05:27:32.327Z,92.87
2022-12-29T05:30:16.867Z,88.23
2022-12-29T05:32:52.375Z,87.60
2022-12-29T05:35:26.476Z,92.30
2022-12-29T05:38:01.194Z,99.60
2022-12-29T05:40:35.871Z,97.67
2022-12-29T05:43:16.531Z,94.77
2022-12-29T05:46:12.858Z,93.53
2022-12-29T05:49:12.721Z,99.40
2022-12-29T05:52:04.934Z,91.77
2022-12-29T05:54:40.436Z,92.17
2022-12-29T05:57:19.279Z,92.23
2022-12-29T06:00:02.252Z,93.63
2022-12-29T06:02:37.034Z,98.30
2022-12-29T06:05:12.184Z,89.93
2022-12-29T06:07:49.222Z,94.27
2022-12-29T06:10:25.431Z,96.37
2022-12-29T06:13:04.444Z,92.43
2022-12-29T06:15:41.626Z,94.83
2022-12-29T06:18:19.870Z,102.23
2022-12-29T06:20:55.430Z,107.30
2022-12-29T06:23:30.997Z,100.03
2022-12-29T06:26:06.579Z,102.53
2022-12-29T06:28:43.375Z,100.57
2022-12-29T06:31:20.210Z,98.80
2022-12-29T06:33:56.208Z,98.53
2022-12-29T06:36:30.886Z,92.80
2022-12-29T06:39:05.141Z,103.47
2022-12-29T06:41:39.633Z,104.80
2022-12-29T06:44:37.110Z,105.93
2022-12-29T06:47:18.001Z,97.20
2022-12-29T06:49:53.178Z,97.97
2022-12-29T06:52:28.457Z,103.77
2022-12-29T06:55:03.074Z,104.87
2022-12-29T06:57:38.053Z,101.83
2022-12-29T07:00:16.958Z,94.17
2022-12-29T07:03:00.861Z,101.87
2022-12-29T07:05:36.605Z,93.60
2022-12-29T07:08:11.404Z,96.30
2022-12-29T07:10:46.031Z,103.27
2022-12-29T07:13:22.227Z,106.20
2022-12-29T07:15:57.720Z,106.90
2022-12-29T07:18:35.254Z,101.90
2022-12-29T07:21:10.657Z,110.27
2022-12-29T07:23:45.918Z,105.10
2022-12-29T07:26:22.446Z,100.97
2022-12-29T07:29:00.608Z,101.37
2022-12-29T07:31:36.176Z,100.80
2022-12-29T07:34:15.753Z,103.00
2022-12-29T07:36:51.590Z,104.50
2022-12-29T07:39:27.708Z,104.30
2022-12-29T07:42:05.338Z,104.10
2022-12-29T07:44:50.907Z,105.80
2022-12-29T07:47:56.236Z,110.80
2022-12-29T07:50:33.887Z,99.33
2022-12-29T07:53:09.421Z,99.70
2022-12-29T07:55:46.045Z,96.33
2022-12-29T07:58:21.543Z,107.23
2022-12-29T08:01:00.457Z,105.50
2022-12-29T08:03:34.962Z,106.23
2022-12-29T08:06:14.752Z,99.23
2022-12-29T08:08:49.449Z,103.73
2022-12-29T08:11:24.483Z,107.00
2022-12-29T08:14:00.175Z,107.60
2022-12-29T08:16:36.013Z,115.00
2022-12-29T08:19:12.137Z,102.67
2022-12-29T08:21:50.875Z,106.17
2022-12-29T08:24:26.748Z,104.40
2022-12-29T08:27:11.846Z,101.73
2022-12-29T08:29:50.839Z,102.87
2022-12-29T08:32:26.410Z,104.20
2022-12-29T08:35:01.955Z,102.67
2022-12-29T08:37:39.409Z,104.63
2022-12-29T08:40:16.535Z,106.77
2022-12-29T08:42:51.931Z,107.43
2022-12-29T08:45:27.093Z,108.27
2022-12-29T08:48:01.856Z,98.57
2022-12-29T08:50:40.139Z,101.00
2022-12-29T08:53:16.563Z,101.63
2022-12-29T08:55:53.886Z,97.10
2022-12-29T08:58:29.069Z,102.50
2022-12-29T09:01:05.447Z,98.07
2022-12-29T09:06:40.171Z,96.73
2022-12-29T09:09:17.578Z,102.37
2022-12-29T09:11:52.543Z,97.67
2022-12-29T09:14:26.610Z,100.30
2022-12-29T09:17:17.718Z,105.57
2022-12-29T09:19:53.073Z,107.03
2022-12-29T09:22:27.957Z,106.43
2022-12-29T09:25:04.239Z,96.67
2022-12-29T09:27:39.048Z,97.43
2022-12-29T09:30:17.165Z,99.27
2022-12-29T09:32:55.115Z,101.17
2022-12-29T09:35:29.775Z,99.17
2022-12-29T09:38:04.284Z,99.47
2022-12-29T09:40:41.877Z,95.07
2022-12-29T09:43:38.242Z,88.23
2022-12-29T09:46:24.379Z,96.43
2022-12-29T09:49:05.851Z,95.17
2022-12-29T09:51:43.210Z,91.63
2022-12-29T09:54:35.483Z,92.80
2022-12-29T09:57:24.707Z,92.40
2022-12-29T10:00:07.001Z,91.13
2022-12-29T10:02:49.770Z,95.70
2022-12-29T10:05:40.779Z,90.50
2022-12-29T10:08:26.758Z,92.60
2022-12-29T10:11:04.784Z,94.60
2022-12-29T10:13:53.189Z,92.50
2022-12-29T10:16:36.209Z,103.13
2022-12-29T10:19:33.450Z,91.57
2022-12-29T10:22:24.588Z,95.60
2022-12-29T10:25:00.991Z,94.33
2022-12-29T10:27:42.730Z,94.37
2022-12-29T10:30:21.498Z,90.57
2022-12-29T10:32:58.926Z,94.57
2022-12-29T10:35:41.707Z,96.83
2022-12-29T10:38:26.290Z,91.50
2022-12-29T10:41:05.864Z,88.43
2022-12-29T10:43:49.092Z,83.73
2022-12-29T10:46:28.609Z,85.93
2022-12-29T10:49:08.013Z,78.67
2022-12-29T10:51:47.358Z,82.63
2022-12-29T10:54:29.238Z,71.47
2022-12-29T10:57:08.962Z,76.27
2022-12-29T10:59:45.246Z,74.17
2022-12-29T11:02:43.673Z,68.77
2022-12-29T11:05:27.091Z,67.23
2022-12-29T11:08:07.634Z,69.33
2022-12-29T11:10:45.478Z,62.07
2022-12-29T11:13:23.639Z,49.30
2022-12-29T11:15:59.761Z,48.97
2022-12-29T11:18:42.402Z,46.63
2022-12-29T11:21:38.570Z,46.17
2022-12-29T11:24:27.010Z,48.83
2022-12-29T11:27:15.223Z,41.00
2022-12-29T11:29:52.279Z,42.90
2022-12-29T11:32:30.215Z,42.33
2022-12-29T11:35:10.063Z,43.37
2022-12-29T11:37:46.987Z,39.40
2022-12-29T11:40:25.713Z,44.63
2022-12-29T11:43:05.282Z,44.00
2022-12-29T11:45:42.246Z,48.80
2022-12-29T11:48:23.583Z,40.87
2022-12-29T11:51:04.569Z,43.73
2022-12-29T11:53:49.872Z,43.43
2022-12-29T11:56:28.348Z,49.00
2022-12-29T11:59:04.110Z,44.13
2022-12-29T12:01:45.231Z,49.83
2022-12-29T12:04:24.655Z,42.77
2022-12-29T12:07:08.686Z,43.67
2022-12-29T12:09:51.997Z,49.53
2022-12-29T12:12:34.508Z,43.30
2022-12-29T12:15:11.983Z,44.73
2022-12-29T12:18:02.384Z,43.80
2022-12-29T12:20:51.889Z,42.20
2022-12-29T12:23:48.441Z,44.00
2022-12-29T12:26:30.443Z,48.13
2022-12-29T12:29:14.070Z,46.57
2022-12-29T12:31:54.555Z,46.10
2022-12-29T12:34:36.031Z,46.17
2022-12-29T12:37:29.288Z,48.47
2022-12-29T12:40:32.663Z,42.97
2022-12-29T12:43:26.609Z,51.87
2022-12-29T12:46:13.794Z,52.80
2022-12-29T12:49:18.440Z,52.47
2022-12-29T12:52:05.305Z,53.47
2022-12-29T12:55:01.933Z,68.10
2022-12-29T12:57:52.072Z,62.57
2022-12-29T13:00:28.900Z,64.90
2022-12-29T13:03:16.671Z,68.17
2022-12-29T13:06:13.902Z,70.20
2022-12-29T13:09:06.924Z,71.90
2022-12-29T13:11:54.874Z,70.13
2022-12-29T13:14:53.111Z,73.00
2022-12-29T13:17:36.767Z,72.03
2022-12-29T13:20:26.566Z,72.97
2022-12-29T13:23:10.808Z,69.87
2022-12-29T13:25:52.420Z,72.83
2022-12-29T13:28:38.383Z,71.97
2022-12-29T13:31:21.806Z,77.23
2022-12-29T13:34:07.248Z,75.60
2022-12-29T13:36:48.355Z,75.97
2022-12-29T13:39:28.707Z,71.83
2022-12-29T13:42:09.261Z,73.40
2022-12-29T13:44:53.780Z,72.13
2022-12-29T13:47:37.566Z,73.53
2022-12-29T13:50:23.137Z,70.80
2022-12-29T13:53:10.517Z,71.93
2022-12-29T13:55:53.807Z,69.73
2022-12-29T13:58:38.687Z,79.33
2022-12-29T14:01:22.138Z,71.07
2022-12-29T14:04:02.629Z,74.37
2022-12-29T14:06:43.230Z,80.63
2022-12-29T14:09:44.716Z,76.13
2022-12-29T14:12:35.306Z,75.30
2022-12-29T14:15:26.087Z,76.87
2022-12-29T14:18:20.891Z,79.67
2022-12-29T14:21:03.112Z,77.70
2022-12-29T14:23:47.167Z,77.07
2022-12-29T14:26:40.150Z,76.97
2022-12-29T14:29:41.349Z,82.10
2022-12-29T14:32:44.772Z,81.00
2022-12-29T14:35:48.840Z,75.30
2022-12-29T14:38:36.189Z,78.40
2022-12-29T14:41:36.779Z,81.20
2022-12-29T14:44:26.502Z,80.93
2022-12-29T14:47:12.014Z,79.30
2022-12-29T14:49:50.980Z,79.23
2022-12-29T14:52:29.893Z,76.73
2022-12-29T14:55:44.557Z,83.80
2022-12-29T14:58:24.528Z,79.77
2022-12-29T15:01:05.212Z,85.47
2022-12-29T15:03:48.266Z,85.77
2022-12-29T15:06:25.671Z,81.73
2022-12-29T15:09:09.699Z,83.10
2022-12-29T15:11:58.634Z,79.40
2022-12-29T15:14:41.580Z,84.63
2022-12-29T15:17:33.338Z,83.57
2022-12-29T15:20:27.546Z,86.27
2022-12-29T15:23:09.331Z,81.17
2022-12-29T15:25:56.253Z,87.07
2022-12-29T15:28:42.615Z,87.93
2022-12-29T15:31:26.326Z,85.07
2022-12-29T15:34:17.011Z,88.17
2022-12-29T15:36:55.833Z,88.43
2022-12-29T15:39:35.760Z,80.33
2022-12-29T15:42:20.641Z,82.47
2022-12-29T15:45:10.188Z,83.80
2022-12-29T15:47:51.745Z,87.83
2022-12-29T15:50:32.762Z,87.40
2022-12-29T15:53:09.046Z,88.20
2022-12-29T15:55:46.709Z,93.17
2022-12-29T15:58:30.562Z,86.93
2022-12-29T16:01:08.891Z,83.23
2022-12-29T16:03:44.036Z,88.07
2022-12-29T16:06:36.840Z,85.23
2022-12-29T16:09:11.939Z,89.27
2022-12-29T16:11:50.060Z,87.40
2022-12-29T16:14:27.690Z,89.37
2022-12-29T16:17:07.682Z,86.27
2022-12-29T16:19:45.063Z,86.67
2022-12-29T16:22:26.624Z,89.23
2022-12-29T16:25:05.320Z,87.47
2022-12-29T16:27:44.329Z,91.27
2022-12-29T16:30:33.128Z,85.73
2022-12-29T16:33:12.147Z,88.50
2022-12-29T16:35:55.222Z,83.97
2022-12-29T16:38:36.033Z,90.67
2022-12-29T16:41:10.039Z,85.63
2022-12-29T16:43:45.911Z,86.30
2022-12-29T16:46:31.997Z,91.27
2022-12-29T16:49:08.083Z,91.80
2022-12-29T16:51:43.301Z,90.27
2022-12-29T16:54:26.405Z,89.60
2022-12-29T16:57:00.907Z,96.93
2022-12-29T16:59:38.926Z,92.90
2022-12-29T17:02:18.151Z,94.17
2022-12-29T17:04:55.365Z,91.97
2022-12-29T17:07:30.324Z,102.47
2022-12-29T17:10:03.985Z,95.47
2022-12-29T17:12:39.910Z,107.60
2022-12-29T17:15:20.032Z,95.07
2022-12-29T17:17:54.761Z,95.87
2022-12-29T17:20:32.510Z,99.13
2022-12-29T17:23:06.954Z,95.93
2022-12-29T17:25:42.496Z,96.63
2022-12-29T17:28:24.088Z,104.97
2022-12-29T17:31:00.054Z,101.30
2022-12-29T17:33:36.051Z,108.03
2022-12-29T17:36:12.392Z,104.40
2022-12-29T17:38:46.850Z,111.77
2022-12-29T17:41:20.809Z,100.07
2022-12-29T17:43:54.685Z,107.63
2022-12-29T17:46:30.692Z,100.53
2022-12-29T17:49:05.545Z,102.60
2022-12-29T17:51:41.712Z,105.13
2022-12-29T17:54:26.595Z,102.17
2022-12-29T17:57:00.597Z,97.10
2022-12-29T17:59:34.802Z,109.43
2022-12-29T18:02:14.650Z,102.83
2022-12-29T18:04:48.923Z,108.37
2022-12-29T18:07:25.077Z,103.20
2022-12-29T18:09:58.899Z,107.07
2022-12-29T18:12:35.676Z,95.57
2022-12-29T18:15:10.085Z,100.83
2022-12-29T18:17:43.840Z,103.60
2022-12-29T18:20:18.609Z,97.27
2022-12-29T18:22:54.763Z,105.63
2022-12-29T18:25:36.506Z,101.33
2022-12-29T18:28:10.625Z,98.90
2022-12-29T18:30:44.750Z,108.50
2022-12-29T18:33:23.300Z,104.50
2022-12-29T18:36:01.753Z,104.23
2022-12-29T18:38:37.693Z,99.37
2022-12-29T18:41:17.192Z,100.37
2022-12-29T18:43:51.476Z,95.77
2022-12-29T18:46:25.641Z,95.50
2022-12-29T18:48:59.810Z,101.80
2022-12-29T18:51:33.537Z,98.67
2022-12-29T18:54:09.427Z,103.37
2022-12-29T18:56:43.286Z,105.23
2022-12-29T18:59:17.343Z,99.57
2022-12-29T19:01:51.548Z,101.30
2022-12-29T19:04:25.907Z,92.87
2022-12-29T19:07:00.839Z,100.63
2022-12-29T19:09:36.563Z,101.47
2022-12-29T19:12:10.716Z,100.07
2022-12-29T19:14:44.853Z,94.30
2022-12-29T19:17:19.777Z,100.17
2022-12-29T19:19:55.160Z,99.37
2022-12-29T19:22:29.449Z,97.60
2022-12-29T19:25:05.215Z,111.97
2022-12-29T19:27:39.337Z,102.70
2022-12-29T19:30:15.575Z,91.57
2022-12-29T19:32:51.866Z,95.27
2022-12-29T19:35:26.996Z,100.87
2022-12-29T19:38:01.122Z,101.60
2022-12-29T19:40:37.128Z,99.53
2022-12-29T19:43:11.182Z,100.77
2022-12-29T19:45:46.417Z,98.87
2022-12-29T19:48:21.853Z,97.60
2022-12-29T19:50:55.604Z,100.97
2022-12-29T19:53:29.437Z,102.90
2022-12-29T19:56:08.314Z,96.43
2022-12-29T19:58:47.489Z,95.60
2022-12-29T20:01:23.525Z,97.70
2022-12-29T20:03:58.231Z,102.30
2022-12-29T20:06:31.929Z,98.57
2022-12-29T20:09:08.081Z,105.83
2022-12-29T20:11:43.999Z,104.10
2022-12-29T20:14:18.541Z,98.60
2022-12-29T20:17:10.092Z,98.43
2022-12-29T20:19:46.211Z,109.03
2022-12-29T20:22:20.355Z,102.53
2022-12-29T20:25:18.313Z,111.33
2022-12-29T20:27:50.446Z,108.70
2022-12-29T20:30:26.491Z,102.60
2022-12-29T20:33:06.086Z,105.07
2022-12-29T20:35:41.795Z,102.83
2022-12-29T20:38:15.764Z,106.20
2022-12-29T20:40:49.921Z,106.27
2022-12-29T20:43:25.725Z,105.40
2022-12-29T20:45:59.895Z,110.40
2022-12-29T20:48:34.848Z,112.13
2022-12-29T20:51:09.543Z,109.23
2022-12-29T20:53:43.769Z,104.27
2022-12-29T20:56:21.403Z,106.40
2022-12-29T21:01:53.380Z,109.20
2022-12-29T21:04:27.568Z,115.00
2022-12-29T21:07:01.338Z,114.40
2022-12-29T21:09:35.212Z,115.67
2022-12-29T21:12:10.221Z,112.47
2022-12-29T21:14:46.190Z,112.60
2022-12-29T21:17:20.244Z,118.83
2022-12-29T21:19:54.092Z,114.37
2022-12-29T21:22:27.879Z,112.57
2022-12-29T21:25:01.750Z,112.90
2022-12-29T21:27:37.053Z,127.90
2022-12-29T21:30:14.237Z,121.00
2022-12-29T21:32:48.383Z,118.47
2022-12-29T21:35:22.448Z,122.33
2022-12-29T21:37:56.456Z,111.77
2022-12-29T21:40:30.208Z,114.30
2022-12-29T21:43:04.763Z,119.70
2022-12-29T21:45:39.037Z,114.07
2022-12-29T21:48:25.544Z,116.13
2022-12-29T21:51:18.085Z,126.10
2022-12-29T21:53:52.303Z,115.13
2022-12-29T21:56:26.233Z,120.63
2022-12-29T21:59:15.815Z,117.47
2022-12-29T22:02:07.308Z,123.37
2022-12-29T22:04:57.344Z,116.07
2022-12-29T22:07:47.449Z,118.37
2022-12-29T22:10:37.395Z,117.03
2022-12-29T22:13:11.286Z,115.10
2022-12-29T22:15:45.413Z,122.97
2022-12-29T22:18:21.884Z,135.63
2022-12-29T22:20:56.024Z,127.60
2022-12-29T22:23:30.074Z,119.83
2022-12-29T22:26:08.522Z,126.30
2022-12-29T22:28:42.991Z,121.40
2022-12-29T22:31:28.998Z,118.93
2022-12-29T22:34:06.500Z,116.23
2022-12-29T22:36:40.520Z,123.27
2022-12-29T22:39:14.357Z,120.60
2022-12-29T22:41:48.456Z,125.33
2022-12-29T22:44:22.318Z,122.13
2022-12-29T22:46:56.444Z,124.37
2022-12-29T22:49:32.597Z,132.60
2022-12-29T22:52:06.459Z,130.53
2022-12-29T22:54:40.424Z,126.50
2022-12-29T22:57:14.199Z,127.13
2022-12-29T22:59:48.202Z,124.77
2022-12-29T23:02:22.130Z,122.87
2022-12-29T23:05:05.747Z,132.07
2022-12-29T23:07:40.266Z,129.03
2022-12-29T23:10:14.551Z,134.40
2022-12-29T23:12:48.762Z,130.77
2022-12-29T23:15:22.613Z,142.27
2022-12-29T23:17:56.666Z,139.57
2022-12-29T23:20:32.579Z,144.17
2022-12-29T23:23:06.645Z,144.17
2022-12-29T23:25:41.320Z,136.93
2022-12-29T23:28:15.006Z,141.10
2022-12-29T23:30:49.528Z,145.83
2022-12-29T23:33:23.789Z,145.47
2022-12-29T23:35:59.883Z,145.07
2022-12-29T23:38:34.226Z,138.03
2022-12-29T23:41:08.026Z,149.80
2022-12-29T23:43:42.161Z,150.87
2022-12-29T23:46:17.585Z,146.20
2022-12-29T23:48:51.320Z,156.13
2022-12-29T23:51:27.684Z,139.23
2022-12-29T23:54:01.841Z,152.83
2022-12-29T23:56:35.763Z,159.37
2022-12-29T23:59:10.404Z,150.80
